Time;durP1;ratioP1;P1;durP2;ratioP2;P2;SDS_P1;SDS_P2;PMS_P1;PMS_P2;Temp;Humidity;BMP_temperature;BMP_pressure;BME280_temperature;BME280_humidity;BME280_pressure;Samples;Min_cycle;Max_cycle;Signal;HPM_P1;HPM_P2
2021/06/23 00:01:02;;;;;;;1999.90;999.90;;;15.20;99.90;;;;;;4992154;28;20182;-67
2021/06/23 00:03:28;;;;;;;1999.90;999.90;;;15.20;99.90;;;;;;4992137;28;20236;-68
2021/06/23 00:05:54;;;;;;;1999.90;999.90;;;15.20;99.90;;;;;;4991968;28;20453;-68
2021/06/23 00:08:19;;;;;;;1999.90;999.90;;;15.20;99.90;;;;;;4992374;28;20180;-67
2021/06/23 00:10:47;;;;;;;1999.90;999.90;;;15.20;99.90;;;;;;4992135;28;20212;-68
2021/06/23 00:13:14;;;;;;;1999.90;999.90;;;15.20;99.90;;;;;;4992172;28;20183;-68
2021/06/23 00:15:39;;;;;;;1999.90;999.90;;;15.20;99.90;;;;;;4991773;28;20452;-67
2021/06/23 00:18:05;;;;;;;1999.90;999.90;;;15.30;99.90;;;;;;4992155;28;20478;-68
2021/06/23 00:20:31;;;;;;;1999.90;999.90;;;15.20;99.90;;;;;;4992265;28;20180;-68
2021/06/23 00:22:57;;;;;;;1999.90;999.90;;;15.20;99.90;;;;;;4992099;28;20168;-67
2021/06/23 00:25:23;;;;;;;1999.90;999.90;;;15.20;99.90;;;;;;4991699;28;20452;-68
2021/06/23 00:27:49;;;;;;;1999.90;999.90;;;15.20;99.90;;;;;;4992100;28;20198;-68
2021/06/23 00:30:16;;;;;;;1999.90;999.90;;;15.20;99.90;;;;;;4993417;28;20410;-68
2021/06/23 00:32:44;;;;;;;1999.90;999.90;;;15.20;99.90;;;;;;4995794;28;20418;-68
2021/06/23 00:35:10;;;;;;;1999.90;999.90;;;15.20;99.90;;;;;;4995163;28;20460;-68
2021/06/23 00:37:36;;;;;;;1999.90;999.90;;;15.20;99.90;;;;;;4995443;28;20950;-67
2021/06/23 00:40:04;;;;;;;1999.90;999.90;;;15.20;99.90;;;;;;4995472;28;20808;-67
2021/06/23 00:42:29;;;;;;;1999.90;999.90;;;15.20;99.90;;;;;;4995444;28;20407;-68
2021/06/23 00:44:55;;;;;;;1999.90;999.90;;;15.20;99.90;;;;;;4994975;28;20512;-68
2021/06/23 00:47:24;;;;;;;1999.90;999.90;;;15.20;99.90;;;;;;4995531;28;20650;-68
2021/06/23 00:49:50;;;;;;;1999.90;999.90;;;15.20;99.90;;;;;;4995241;28;20647;-67
2021/06/23 00:52:16;;;;;;;1999.90;999.90;;;15.20;99.90;;;;;;4995246;28;20452;-68
2021/06/23 00:54:48;;;;;;;1999.90;999.90;;;15.20;99.90;;;;;;4994609;28;20214;-68
2021/06/23 00:57:15;;;;;;;1999.90;999.90;;;15.20;99.90;;;;;;4995114;28;20184;-68
2021/06/23 00:59:41;;;;;;;1999.90;999.90;;;15.20;99.90;;;;;;4995040;28;20409;-68
2021/06/23 01:02:07;;;;;;;1999.90;999.90;;;15.10;99.90;;;;;;4995059;28;20410;-68
2021/06/23 01:04:33;;;;;;;1999.90;999.90;;;15.10;99.90;;;;;;4994694;28;20470;-67
2021/06/23 01:06:58;;;;;;;1999.90;999.90;;;15.10;99.90;;;;;;4994926;28;20165;-69
2021/06/23 01:09:24;;;;;;;1999.90;999.90;;;15.10;99.90;;;;;;4994949;28;20172;-68
2021/06/23 01:12:16;;;;;;;1999.90;999.90;;;15.10;99.90;;;;;;4994838;28;20583;-68
2021/06/23 01:14:43;;;;;;;1999.90;999.90;;;15.00;99.90;;;;;;4993298;28;20482;-68
2021/06/23 01:17:10;;;;;;;1999.90;999.90;;;15.00;99.90;;;;;;4994887;28;20472;-68
2021/06/23 01:19:43;;;;;;;1999.90;999.90;;;15.00;99.90;;;;;;4994698;28;20541;-68
2021/06/23 01:22:10;;;;;;;1999.90;999.90;;;14.90;99.90;;;;;;4994694;28;20409;-68
2021/06/23 01:24:36;;;;;;;1999.90;999.90;;;14.90;99.90;;;;;;4994302;28;20837;-68
2021/06/23 01:27:02;;;;;;;1999.90;999.90;;;14.90;99.90;;;;;;4994577;28;20439;-68
2021/06/23 01:29:27;;;;;;;1999.90;999.90;;;14.90;99.90;;;;;;4994592;28;20196;-68
2021/06/23 01:31:53;;;;;;;1999.90;999.90;;;14.90;99.90;;;;;;4994524;28;20168;-68
2021/06/23 01:34:19;;;;;;;1999.90;999.90;;;14.90;99.90;;;;;;4994120;28;20221;-68
2021/06/23 01:36:44;;;;;;;1999.90;999.90;;;14.90;99.90;;;;;;4994156;28;20564;-68
2021/06/23 01:39:10;;;;;;;1999.90;999.90;;;15.00;99.90;;;;;;4994326;28;20517;-68
2021/06/23 01:41:35;;;;;;;1999.90;999.90;;;14.90;99.90;;;;;;4993571;28;20528;-68
2021/06/23 01:44:02;;;;;;;1999.90;999.90;;;15.00;99.90;;;;;;4994001;28;20248;-68
2021/06/23 01:46:28;;;;;;;1999.90;999.90;;;14.90;99.90;;;;;;4994250;28;20284;-68
2021/06/23 01:48:56;;;;;;;1999.90;999.90;;;14.90;99.90;;;;;;4994149;28;20444;-68
2021/06/23 01:51:22;;;;;;;1999.90;999.90;;;14.90;99.90;;;;;;4992777;28;20575;-68
2021/06/23 01:53:48;;;;;;;1999.90;999.90;;;15.00;99.90;;;;;;4993639;28;20498;-67
2021/06/23 01:56:13;;;;;;;1999.90;999.90;;;15.00;99.90;;;;;;4994083;28;20748;-68
2021/06/23 01:58:42;;;;;;;1999.90;999.90;;;14.90;99.90;;;;;;4993962;28;20183;-68
2021/06/23 02:01:11;;;;;;;1999.90;999.90;;;14.90;99.90;;;;;;4993936;28;20174;-68
2021/06/23 02:03:55;;;;;;;1999.90;999.90;;;14.80;99.90;;;;;;4993815;28;20830;-68
2021/06/23 02:06:33;;;;;;;1999.90;999.90;;;14.90;99.90;;;;;;4993775;28;20518;-68
2021/06/23 02:09:12;;;;;;;1999.90;999.90;;;14.80;99.90;;;;;;4993811;28;20419;-67
2021/06/23 02:11:49;;;;;;;1999.90;999.90;;;14.90;99.90;;;;;;4993842;28;20829;-68
2021/06/23 02:14:36;;;;;;;1999.90;999.90;;;14.90;99.90;;;;;;4993339;28;20433;-68
2021/06/23 02:17:03;;;;;;;1999.90;999.90;;;15.00;99.90;;;;;;4993738;28;20411;-68
2021/06/23 02:19:31;;;;;;;1999.90;999.90;;;14.90;99.90;;;;;;4993580;28;20490;-68
2021/06/23 02:21:58;;;;;;;1999.90;999.90;;;14.90;99.90;;;;;;4993557;28;20435;-69
2021/06/23 02:24:26;;;;;;;1999.90;999.90;;;14.90;99.90;;;;;;4993160;28;20932;-67
2021/06/23 02:26:52;;;;;;;1999.90;999.90;;;15.00;99.90;;;;;;4993458;28;20394;-68
2021/06/23 02:29:17;;;;;;;1999.90;999.90;;;15.00;99.90;;;;;;4993411;28;20435;-68
2021/06/23 02:31:43;;;;;;;1999.90;999.90;;;15.00;99.90;;;;;;4993435;28;20172;-68
2021/06/23 02:34:14;;;;;;;1999.90;999.90;;;14.90;99.90;;;;;;4993188;28;20280;-68
2021/06/23 02:36:39;;;;;;;1999.90;999.90;;;14.90;99.90;;;;;;4993219;28;20625;-68
2021/06/23 02:39:07;;;;;;;1999.90;999.90;;;14.90;99.90;;;;;;4993265;28;20432;-68
2021/06/23 02:41:34;;;;;;;1999.90;999.90;;;14.90;99.90;;;;;;4993267;28;20194;-67
2021/06/23 02:44:00;;;;;;;1999.90;999.90;;;14.90;99.90;;;;;;4992832;28;20943;-68
2021/06/23 02:46:25;;;;;;;1999.90;999.90;;;14.90;99.90;;;;;;4993092;28;20518;-68
2021/06/23 02:48:51;;;;;;;1999.90;999.90;;;14.90;99.90;;;;;;4993113;28;20412;-67
2021/06/23 02:51:22;;;;;;;1999.90;999.90;;;14.80;99.90;;;;;;4993038;28;20212;-68
2021/06/23 02:53:50;;;;;;;1999.90;999.90;;;14.80;99.90;;;;;;4992564;28;20860;-65
2021/06/23 02:56:17;;;;;;;1999.90;999.90;;;14.80;99.90;;;;;;4992838;28;20497;-68
2021/06/23 02:58:43;;;;;;;1999.90;999.90;;;14.80;99.90;;;;;;4992966;28;20411;-67
2021/06/23 03:01:11;;;;;;;1999.90;999.90;;;14.70;99.90;;;;;;4992895;28;20412;-68
2021/06/23 03:03:38;;;;;;;1999.90;999.90;;;14.80;99.90;;;;;;4992780;28;20428;-68
2021/06/23 03:06:04;;;;;;;1999.90;999.90;;;14.80;99.90;;;;;;4992549;28;20845;-68
2021/06/23 03:08:30;;;;;;;1999.90;999.90;;;14.80;99.90;;;;;;4992687;28;20409;-68
2021/06/23 03:10:56;;;;;;;1999.90;999.90;;;14.80;99.90;;;;;;4992728;28;20415;-68
2021/06/23 03:13:22;;;;;;;1999.90;999.90;;;14.70;99.90;;;;;;4992671;28;20432;-68
2021/06/23 03:15:48;;;;;;;1999.90;999.90;;;14.70;99.90;;;;;;4992388;28;20482;-68
2021/06/23 03:18:13;;;;;;;1999.90;999.90;;;14.70;99.90;;;;;;4992795;28;20790;-68
2021/06/23 03:20:39;;;;;;;1999.90;999.90;;;14.70;99.90;;;;;;4992648;28;20633;-68
2021/06/23 03:23:05;;;;;;;1999.90;999.90;;;14.60;99.90;;;;;;4992485;28;20172;-68
2021/06/23 03:25:31;;;;;;;1999.90;999.90;;;14.60;99.90;;;;;;4992301;28;20234;-68
2021/06/23 03:27:59;;;;;;;1999.90;999.90;;;14.70;99.90;;;;;;4992614;28;20248;-68
2021/06/23 03:30:27;;;;;;;1999.90;999.90;;;14.70;99.90;;;;;;4992546;28;20192;-69
2021/06/23 03:32:53;;;;;;;1999.90;999.90;;;14.70;99.90;;;;;;4992610;28;20853;-68
2021/06/23 03:35:20;;;;;;;1999.90;999.90;;;14.70;99.90;;;;;;4992052;28;20450;-68
2021/06/23 03:37:53;;;;;;;1999.90;999.90;;;14.70;99.90;;;;;;4992509;28;20823;-68
2021/06/23 03:40:19;;;;;;;1999.90;999.90;;;14.80;99.90;;;;;;4992564;28;21046;-68
2021/06/23 03:42:46;;;;;;;1999.90;999.90;;;14.80;99.90;;;;;;5015467;23;20494;-66
2021/06/23 03:45:12;;;;;;;1999.90;999.90;;;14.70;99.90;;;;;;4972802;28;20637;-67
2021/06/23 03:47:40;;;;;;;1999.90;999.90;;;14.60;99.90;;;;;;4973082;28;20786;-66
2021/06/23 03:50:06;;;;;;;1999.90;999.90;;;14.60;99.90;;;;;;4973028;28;20830;-66
2021/06/23 03:52:33;;;;;;;1999.90;999.90;;;14.60;99.90;;;;;;4972972;28;20804;-66
2021/06/23 03:54:58;;;;;;;1999.90;999.90;;;14.60;99.90;;;;;;4972663;28;20487;-66
2021/06/23 03:57:24;;;;;;;1999.90;999.90;;;14.50;99.90;;;;;;4972944;28;20882;-65
2021/06/23 03:59:51;;;;;;;1999.90;999.90;;;14.60;99.90;;;;;;4972969;28;20172;-66
2021/06/23 04:02:17;;;;;;;1999.90;999.90;;;14.60;99.90;;;;;;4972847;28;20197;-65
2021/06/23 04:04:45;;;;;;;1999.90;999.90;;;14.60;99.90;;;;;;4973322;28;20798;-65
2021/06/23 04:07:10;;;;;;;1999.90;999.90;;;14.60;99.90;;;;;;4976907;28;21089;-66
2021/06/23 04:09:36;;;;;;;1999.90;999.90;;;14.70;99.90;;;;;;4976568;28;20482;-67
2021/06/23 04:12:03;;;;;;;1999.90;999.90;;;14.70;99.90;;;;;;4976486;28;20422;-66
2021/06/23 04:14:28;;;;;;;1999.90;999.90;;;14.60;99.90;;;;;;4976298;28;20408;-66
2021/06/23 04:16:54;;;;;;;1999.90;999.90;;;14.70;99.90;;;;;;4976344;28;20535;-66
2021/06/23 04:19:20;;;;;;;1999.90;999.90;;;14.60;99.90;;;;;;4976387;28;20174;-66
2021/06/23 04:21:46;;;;;;;1999.90;999.90;;;14.60;99.90;;;;;;4976242;28;20481;-66
2021/06/23 04:24:11;;;;;;;1999.90;999.90;;;14.60;99.90;;;;;;4976053;28;20249;-66
2021/06/23 04:26:38;;;;;;;1999.90;999.90;;;14.60;99.90;;;;;;4976361;28;20174;-66
2021/06/23 04:29:04;;;;;;;1999.90;999.90;;;14.60;99.90;;;;;;4976234;28;20175;-67
2021/06/23 04:31:30;;;;;;;1999.90;999.90;;;14.60;99.90;;;;;;4976205;28;20452;-66
2021/06/23 04:33:56;;;;;;;1999.90;999.90;;;14.60;99.90;;;;;;4975825;28;20179;-67
2021/06/23 04:36:22;;;;;;;1999.90;999.90;;;14.60;99.90;;;;;;4976126;28;20460;-66
2021/06/23 04:38:47;;;;;;;1999.90;999.90;;;14.60;99.90;;;;;;4976057;28;20808;-66
2021/06/23 04:41:13;;;;;;;1999.90;999.90;;;14.60;99.90;;;;;;4975875;28;20292;-66
2021/06/23 04:43:39;;;;;;;1999.90;999.90;;;14.60;99.90;;;;;;4976056;28;20166;-66
2021/06/23 04:46:04;;;;;;;1999.90;999.90;;;14.50;99.90;;;;;;4975743;28;20179;-67
2021/06/23 04:48:32;;;;;;;1999.90;999.90;;;14.50;99.90;;;;;;4975861;28;20586;-67
2021/06/23 04:50:58;;;;;;;1999.90;999.90;;;14.50;99.90;;;;;;4975845;28;20207;-66
2021/06/23 04:53:23;;;;;;;1999.90;999.90;;;14.50;99.90;;;;;;4975766;28;20422;-66
2021/06/23 04:55:49;;;;;;;1999.90;999.90;;;14.50;99.90;;;;;;4975609;28;20200;-66
2021/06/23 04:58:15;;;;;;;1999.90;999.90;;;14.60;99.90;;;;;;4975689;28;20176;-67
2021/06/23 05:00:41;;;;;;;1999.90;999.90;;;14.60;99.90;;;;;;4975553;28;20241;-67
2021/06/23 05:03:07;;;;;;;1999.90;999.90;;;14.60;99.90;;;;;;4975482;28;20429;-67
2021/06/23 05:05:32;;;;;;;1999.90;999.90;;;14.60;99.90;;;;;;4975302;28;20170;-66
2021/06/23 05:07:58;;;;;;;1999.90;999.90;;;14.50;99.90;;;;;;4975720;28;20718;-66
2021/06/23 05:10:24;;;;;;;1999.90;999.90;;;14.60;99.90;;;;;;4975536;28;20230;-66
2021/06/23 05:12:49;;;;;;;1999.90;999.90;;;14.70;99.90;;;;;;4975414;28;20193;-66
2021/06/23 05:15:15;;;;;;;1999.90;999.90;;;14.70;99.90;;;;;;4975026;28;20205;-67
2021/06/23 05:17:41;;;;;;;1999.90;999.90;;;14.70;99.90;;;;;;4974163;28;20167;-66
2021/06/23 05:20:07;;;;;;;1999.90;999.90;;;14.70;99.90;;;;;;4975340;28;20716;-66
2021/06/23 05:22:32;;;;;;;1999.90;999.90;;;14.60;99.90;;;;;;4975324;28;20189;-66
2021/06/23 05:24:58;;;;;;;1999.90;999.90;;;14.60;99.90;;;;;;4975040;28;20910;-66
2021/06/23 05:27:24;;;;;;;1999.90;999.90;;;14.60;99.90;;;;;;4975301;28;20181;-66
2021/06/23 05:29:50;;;;;;;1999.90;999.90;;;14.60;99.90;;;;;;4975226;28;21050;-66
2021/06/23 05:32:15;;;;;;;1999.90;999.90;;;14.60;99.90;;;;;;4975077;28;20192;-67
2021/06/23 05:34:41;;;;;;;1999.90;999.90;;;14.70;99.90;;;;;;4974683;28;20264;-66
2021/06/23 05:37:06;;;;;;;1999.90;999.90;;;14.70;99.90;;;;;;4975044;28;20254;-66
2021/06/23 05:39:32;;;;;;;1999.90;999.90;;;14.60;99.90;;;;;;4974994;28;20166;-66
2021/06/23 05:41:58;;;;;;;1999.90;999.90;;;14.70;99.90;;;;;;4974728;28;20207;-67
2021/06/23 05:44:24;;;;;;;1999.90;999.90;;;14.60;99.90;;;;;;4974610;28;20700;-66
2021/06/23 05:46:50;;;;;;;1999.90;999.90;;;14.50;99.90;;;;;;4974767;28;20398;-67
2021/06/23 05:49:15;;;;;;;1999.90;999.90;;;14.50;99.90;;;;;;4974794;28;20177;-66
2021/06/23 05:51:41;;;;;;;1999.90;999.90;;;14.50;99.90;;;;;;4974757;28;20232;-66
2021/06/23 05:54:06;;;;;;;1999.90;999.90;;;14.50;99.90;;;;;;4974497;28;20676;-66
2021/06/23 05:56:32;;;;;;;1999.90;999.90;;;14.50;99.90;;;;;;4974577;28;20205;-66
2021/06/23 05:58:58;;;;;;;1999.90;999.90;;;14.50;99.90;;;;;;4974641;28;20167;-67
2021/06/23 06:01:23;;;;;;;1999.90;999.90;;;14.50;99.90;;;;;;4974417;28;20196;-66
2021/06/23 06:03:49;;;;;;;1999.90;999.90;;;14.60;99.90;;;;;;4974382;28;20720;-66
2021/06/23 06:06:15;;;;;;;1999.90;999.90;;;14.60;99.90;;;;;;4974414;28;20251;-66
2021/06/23 06:08:41;;;;;;;1999.90;999.90;;;14.50;99.90;;;;;;4974759;28;20754;-66
2021/06/23 06:11:06;;;;;;;1999.90;999.90;;;14.60;99.90;;;;;;4974312;28;20434;-67
2021/06/23 06:13:32;;;;;;;1999.90;999.90;;;14.70;99.90;;;;;;4974294;28;20172;-66
2021/06/23 06:15:57;;;;;;;1999.90;999.90;;;14.80;99.90;;;;;;4973880;28;20282;-66
2021/06/23 06:18:24;;;;;;;1999.90;999.90;;;14.80;99.90;;;;;;4974194;28;20198;-66
2021/06/23 06:20:50;;;;;;;1999.90;999.90;;;14.80;99.90;;;;;;4972913;28;20179;-66
2021/06/23 06:23:16;;;;;;;1999.90;999.90;;;14.70;99.90;;;;;;4974247;28;20428;-66
2021/06/23 06:25:42;;;;;;;1999.90;999.90;;;14.70;99.90;;;;;;4973957;28;20404;-66
2021/06/23 06:28:07;;;;;;;1999.90;999.90;;;14.60;99.90;;;;;;4973837;28;20189;-67
2021/06/23 06:30:33;;;;;;;1999.90;999.90;;;14.40;99.90;;;;;;4973943;28;20314;-66
2021/06/23 06:32:59;;;;;;;1999.90;999.90;;;14.30;99.90;;;;;;4973890;28;20197;-66
2021/06/23 06:35:25;;;;;;;1999.90;999.90;;;14.20;99.90;;;;;;4973536;28;20449;-66
2021/06/23 06:37:50;;;;;;;1999.90;999.90;;;14.20;99.90;;;;;;4973932;28;20253;-66
2021/06/23 06:40:17;;;;;;;1999.90;999.90;;;14.20;99.90;;;;;;4973848;28;20198;-66
2021/06/23 06:42:43;;;;;;;1999.90;999.90;;;14.30;99.90;;;;;;4973696;28;20494;-66
2021/06/23 06:45:09;;;;;;;1999.90;999.90;;;14.30;99.90;;;;;;4973459;28;20665;-66
2021/06/23 06:47:34;;;;;;;1999.90;999.90;;;14.30;99.90;;;;;;4973811;28;20202;-66
2021/06/23 06:50:00;;;;;;;1999.90;999.90;;;14.30;99.90;;;;;;4973716;28;20178;-65
2021/06/23 06:52:26;;;;;;;1999.90;999.90;;;14.30;99.90;;;;;;4973571;28;20194;-66
2021/06/23 06:54:51;;;;;;;1999.90;999.90;;;14.30;99.90;;;;;;4973299;28;20184;-66
2021/06/23 06:57:17;;;;;;;1999.90;999.90;;;14.40;99.90;;;;;;4973595;28;20163;-66
2021/06/23 06:59:43;;;;;;;1999.90;999.90;;;14.50;99.90;;;;;;4973541;28;20172;-66
2021/06/23 07:02:09;;;;;;;1999.90;999.90;;;14.60;99.90;;;;;;4973403;28;20184;-65
2021/06/23 07:04:34;;;;;;;1999.90;999.90;;;14.70;99.90;;;;;;4973549;28;20652;-66
2021/06/23 07:07:00;;;;;;;1999.90;999.90;;;14.80;99.90;;;;;;4973441;28;20410;-66
2021/06/23 07:09:26;;;;;;;1999.90;999.90;;;14.90;99.90;;;;;;4973403;28;20727;-66
2021/06/23 07:11:52;;;;;;;1999.90;999.90;;;14.70;99.90;;;;;;4973325;28;20573;-67
2021/06/23 07:14:20;;;;;;;1999.90;999.90;;;14.60;99.90;;;;;;4973047;28;20203;-67
2021/06/23 07:16:46;;;;;;;1999.90;999.90;;;14.60;99.90;;;;;;4973843;28;20458;-67
2021/06/23 07:19:12;;;;;;;1999.90;999.90;;;14.60;99.90;;;;;;4973348;28;20431;-67
2021/06/23 07:21:37;;;;;;;1999.90;999.90;;;14.60;99.90;;;;;;4973218;28;20777;-67
2021/06/23 07:24:03;;;;;;;1999.90;999.90;;;14.60;99.90;;;;;;4972953;28;20437;-67
2021/06/23 07:26:29;;;;;;;1999.90;999.90;;;14.60;99.90;;;;;;4973288;28;20184;-67
2021/06/23 07:28:56;;;;;;;1999.90;999.90;;;14.70;99.90;;;;;;4973139;28;20947;-67
2021/06/23 07:34:18;;;;;;;1999.90;999.90;;;14.80;99.90;;;;;;4973203;28;20437;-67
2021/06/23 07:36:52;;;;;;;1999.90;999.90;;;14.90;99.90;;;;;;4973104;28;21010;-67
2021/06/23 07:39:19;;;;;;;1999.90;999.90;;;14.90;99.90;;;;;;4973149;28;20405;-67
2021/06/23 07:41:47;;;;;;;1999.90;999.90;;;15.00;99.90;;;;;;4976577;28;20508;-67
2021/06/23 07:44:15;;;;;;;1999.90;999.90;;;15.00;99.90;;;;;;4976739;28;20405;-67
2021/06/23 07:46:47;;;;;;;1999.90;999.90;;;15.10;99.90;;;;;;4977047;28;20935;-67
2021/06/23 07:49:15;;;;;;;1999.90;999.90;;;15.10;99.90;;;;;;4977183;28;20409;-66
2021/06/23 08:10:10;;;;;;;1999.90;999.90;;;15.10;99.90;;;;;;4946475;28;20936;-67
2021/06/23 08:12:44;;;;;;;1999.90;999.90;;;15.00;99.90;;;;;;4976423;28;20431;-67
2021/06/23 08:15:11;;;;;;;1999.90;999.90;;;15.00;99.90;;;;;;4976189;28;20485;-67
2021/06/23 08:17:37;;;;;;;1999.90;999.90;;;15.00;99.90;;;;;;4976449;28;20430;-67
2021/06/23 08:20:04;;;;;;;1999.90;999.90;;;14.90;99.90;;;;;;4976579;28;20486;-67
2021/06/23 08:22:31;;;;;;;1999.90;999.90;;;15.00;99.90;;;;;;4976265;28;20188;-67
2021/06/23 08:24:56;;;;;;;1999.90;999.90;;;15.00;99.90;;;;;;4976119;28;20774;-67
2021/06/23 08:27:22;;;;;;;1999.90;999.90;;;15.00;99.90;;;;;;4976114;28;20501;-67
2021/06/23 08:29:47;;;;;;;1999.90;999.90;;;15.10;99.90;;;;;;4976278;28;20194;-67
2021/06/23 08:32:13;;;;;;;1999.90;999.90;;;15.10;99.90;;;;;;4976293;28;20198;-67
2021/06/23 08:34:39;;;;;;;1999.90;999.90;;;15.10;99.90;;;;;;4975850;28;20173;-67
2021/06/23 08:37:04;;;;;;;1999.90;999.90;;;15.30;99.90;;;;;;4976064;28;20203;-67
2021/06/23 08:39:30;;;;;;;1999.90;999.90;;;15.40;99.90;;;;;;4975846;28;20647;-66
2021/06/23 08:41:56;;;;;;;1999.90;999.90;;;15.40;99.90;;;;;;4975782;28;20215;-66
2021/06/23 08:44:22;;;;;;;1999.90;999.90;;;15.50;99.90;;;;;;4975653;28;20173;-67
2021/06/23 08:46:49;;;;;;;1999.90;999.90;;;15.60;99.90;;;;;;4976129;28;20185;-66
2021/06/23 08:49:15;;;;;;;1999.90;999.90;;;15.70;99.90;;;;;;4976071;28;20417;-67
2021/06/23 08:51:43;;;;;;;1999.90;999.90;;;15.90;99.90;;;;;;4975648;28;20941;-67
2021/06/23 08:54:08;;;;;;;1999.90;999.90;;;15.90;99.90;;;;;;4975581;28;20213;-67
2021/06/23 08:56:34;;;;;;;1999.90;999.90;;;15.80;99.90;;;;;;4975612;28;20535;-66
2021/06/23 08:59:05;;;;;;;1999.90;999.90;;;15.70;99.90;;;;;;4975774;28;20642;-68
2021/06/23 09:01:34;;;;;;;1999.90;999.90;;;15.60;99.90;;;;;;4975810;28;20216;-67
2021/06/23 09:04:14;;;;;;;1999.90;999.90;;;15.50;99.90;;;;;;4975393;28;20436;-67
2021/06/23 09:06:49;;;;;;;1999.90;999.90;;;15.50;99.90;;;;;;4975816;28;20406;-67
2021/06/23 09:09:22;;;;;;;1999.90;999.90;;;15.50;99.90;;;;;;4975573;28;20405;-67
2021/06/23 09:11:49;;;;;;;1999.90;999.90;;;15.50;99.90;;;;;;4975487;28;20430;-67
2021/06/23 09:14:17;;;;;;;1999.90;999.90;;;15.50;99.90;;;;;;4975167;28;20445;-67
2021/06/23 09:17:09;;;;;;;1999.90;999.90;;;15.80;99.90;;;;;;4975437;28;20821;-67
2021/06/23 09:19:39;;;;;;;1999.90;999.90;;;16.00;99.90;;;;;;4975433;28;20401;-67
2021/06/23 09:22:26;;;;;;;1999.90;999.90;;;16.20;99.90;;;;;;4975533;28;20426;-67
2021/06/23 09:24:52;;;;;;;1999.90;999.90;;;16.20;99.90;;;;;;4975056;28;20409;-66
2021/06/23 09:27:22;;;;;;;1999.90;999.90;;;16.20;99.90;;;;;;4975196;28;20931;-67
2021/06/23 09:29:50;;;;;;;1999.90;999.90;;;16.20;99.90;;;;;;4975164;28;20173;-67
2021/06/23 09:32:17;;;;;;;1999.90;999.90;;;16.30;99.90;;;;;;4975295;28;20779;-67
2021/06/23 09:34:46;;;;;;;1999.90;999.90;;;16.40;99.90;;;;;;4974723;28;20401;-67
2021/06/23 09:37:27;;;;;;;1999.90;999.90;;;16.50;99.90;;;;;;4975007;28;20480;-67
2021/06/23 09:40:15;;;;;;;1999.90;999.90;;;16.60;99.90;;;;;;4975092;28;20851;-67
2021/06/23 09:42:44;;;;;;;1999.90;999.90;;;16.80;99.90;;;;;;4975165;28;20461;-67
2021/06/23 09:45:13;;;;;;;1999.90;999.90;;;16.90;99.90;;;;;;4974710;28;20844;-67
2021/06/23 09:47:39;;;;;;;1999.90;999.90;;;17.00;99.90;;;;;;4974851;28;20415;-67
2021/06/23 09:50:11;;;;;;;1999.90;999.90;;;17.10;99.90;;;;;;4974843;28;20907;-67
2021/06/23 09:52:50;;;;;;;1999.90;999.90;;;17.10;99.90;;;;;;4974701;28;20492;-67
2021/06/23 09:55:18;;;;;;;1999.90;999.90;;;17.30;99.90;;;;;;4974366;28;20506;-67
2021/06/23 09:58:06;;;;;;;1999.90;999.90;;;17.30;99.90;;;;;;4974643;28;20800;-67
2021/06/23 10:00:34;;;;;;;1999.90;999.90;;;17.40;99.90;;;;;;4975628;28;20406;-67
2021/06/23 10:03:05;;;;;;;1999.90;999.90;;;17.40;99.90;;;;;;4973879;28;20516;-67
2021/06/23 10:05:31;;;;;;;1999.90;999.90;;;17.40;99.90;;;;;;4974208;28;20401;-67
2021/06/23 10:07:57;;;;;;;1999.90;999.90;;;17.60;99.90;;;;;;4974491;28;20464;-67
2021/06/23 10:10:42;;;;;;;1999.90;999.90;;;17.60;99.90;;;;;;4974215;28;20441;-67
2021/06/23 10:13:08;;;;;;;1999.90;999.90;;;17.70;99.90;;;;;;4974401;28;20452;-67
2021/06/23 10:15:35;;;;;;;1999.90;999.90;;;17.50;99.90;;;;;;4973915;28;20892;-67
2021/06/23 10:18:03;;;;;;;1999.90;999.90;;;17.50;99.90;;;;;;4974230;28;20500;-67
2021/06/23 10:20:28;;;;;;;1999.90;999.90;;;17.20;99.90;;;;;;4974147;28;20415;-67
2021/06/23 10:22:55;;;;;;;1999.90;999.90;;;17.20;99.90;;;;;;4974092;28;20882;-68
2021/06/23 10:25:23;;;;;;;1999.90;999.90;;;17.10;99.90;;;;;;4973925;28;20585;-67
2021/06/23 10:27:50;;;;;;;1999.90;999.90;;;16.90;99.90;;;;;;4974094;28;20405;-67
2021/06/23 10:30:16;;;;;;;1999.90;999.90;;;16.80;99.90;;;;;;4974043;28;20418;-67
2021/06/23 10:32:42;;;;;;;1999.90;999.90;;;16.80;99.90;;;;;;4973934;28;20582;-67
2021/06/23 10:35:09;;;;;;;1999.90;999.90;;;16.60;99.90;;;;;;4973642;28;20456;-67
2021/06/23 10:37:38;;;;;;;1999.90;999.90;;;16.50;99.90;;;;;;4973906;28;20419;-67
2021/06/23 10:40:13;;;;;;;1999.90;999.90;;;16.50;99.90;;;;;;4973821;28;20429;-67
2021/06/23 10:42:39;;;;;;;1999.90;999.90;;;16.50;99.90;;;;;;4973612;28;20443;-67
2021/06/23 10:45:06;;;;;;;1999.90;999.90;;;16.60;99.90;;;;;;4973782;28;20764;-67
2021/06/23 10:47:45;;;;;;;1999.90;999.90;;;16.70;99.90;;;;;;4973721;28;20411;-67
2021/06/23 10:50:35;;;;;;;1999.90;999.90;;;17.00;99.90;;;;;;4973788;28;20812;-67
2021/06/23 10:53:02;;;;;;;1999.90;999.90;;;17.10;99.90;;;;;;4973599;28;20957;-67
2021/06/23 10:55:29;;;;;;;1999.90;999.90;;;17.10;99.90;;;;;;4973247;28;20823;-68
2021/06/23 10:58:09;;;;;;;1999.90;999.90;;;17.00;99.90;;;;;;4973771;28;20451;-68
2021/06/23 11:00:36;;;;;;;1999.90;999.90;;;16.80;99.90;;;;;;4973568;28;20413;-67
2021/06/23 11:03:09;;;;;;;1999.90;999.90;;;16.80;99.90;;;;;;4973454;28;20487;-67
2021/06/23 11:05:40;;;;;;;1999.90;999.90;;;16.90;99.90;;;;;;4973239;28;20446;-67
2021/06/23 11:08:22;;;;;;;1999.90;999.90;;;17.00;99.90;;;;;;4973471;28;20414;-67
2021/06/23 11:10:48;;;;;;;1999.90;999.90;;;17.20;99.90;;;;;;4973372;28;20423;-67
2021/06/23 11:13:35;;;;;;;1999.90;999.90;;;17.30;99.90;;;;;;4973526;28;20436;-67
2021/06/23 11:16:01;;;;;;;1999.90;999.90;;;17.40;99.90;;;;;;4972511;28;20464;-67
2021/06/23 11:18:40;;;;;;;1999.90;999.90;;;17.40;99.90;;;;;;4973294;28;20409;-67
2021/06/23 11:21:20;;;;;;;1999.90;999.90;;;17.40;99.90;;;;;;4973291;28;20939;-67
2021/06/23 11:23:51;;;;;;;1999.90;999.90;;;17.50;99.90;;;;;;4973103;28;20409;-67
2021/06/23 11:26:22;;;;;;;1999.90;999.90;;;17.80;99.90;;;;;;4973163;28;20413;-67
2021/06/23 11:28:56;;;;;;;1999.90;999.90;;;18.00;99.90;;;;;;4973167;28;20425;-67
2021/06/23 11:31:38;;;;;;;1999.90;999.90;;;18.00;99.90;;;;;;4973149;28;20425;-67
2021/06/23 11:34:04;;;;;;;1999.90;999.90;;;18.20;99.90;;;;;;4972910;28;20408;-67
2021/06/23 11:36:30;;;;;;;1999.90;999.90;;;18.00;99.90;;;;;;4972684;28;20448;-67
2021/06/23 11:38:56;;;;;;;1999.90;999.90;;;17.90;99.90;;;;;;4972649;28;20702;-67
2021/06/23 11:41:22;;;;;;;1999.90;999.90;;;18.00;99.90;;;;;;4972864;28;20877;-67
2021/06/23 11:43:48;;;;;;;1999.90;999.90;;;18.20;99.90;;;;;;4972864;28;20398;-66
2021/06/23 11:46:14;;;;;;;1999.90;999.90;;;18.40;99.90;;;;;;4971159;28;20444;-67
2021/06/23 11:48:41;;;;;;;1999.90;999.90;;;18.20;99.90;;;;;;4972665;28;20170;-68
2021/06/23 11:51:08;;;;;;;1999.90;999.90;;;18.00;99.90;;;;;;4972371;28;20954;-67
2021/06/23 11:53:34;;;;;;;1999.90;999.90;;;17.80;99.90;;;;;;4972259;28;20424;-66
2021/06/23 11:56:01;;;;;;;1999.90;999.90;;;17.90;99.90;;;;;;4967691;28;20465;-66
2021/06/23 11:58:27;;;;;;;1999.90;999.90;;;17.90;99.90;;;;;;4969374;28;20398;-66
2021/06/23 12:00:53;;;;;;;1999.90;999.90;;;18.00;99.90;;;;;;4970842;28;20418;-67
2021/06/23 12:03:18;;;;;;;1999.90;999.90;;;18.30;99.90;;;;;;4970139;28;20420;-66
2021/06/23 12:05:48;;;;;;;1999.90;999.90;;;18.50;99.90;;;;;;4970312;28;20416;-65
2021/06/23 12:08:15;;;;;;;1999.90;999.90;;;18.40;99.90;;;;;;4970875;28;20166;-68
2021/06/23 12:10:42;;;;;;;1999.90;999.90;;;18.50;99.90;;;;;;4969999;28;20444;-67
2021/06/23 12:13:09;;;;;;;1999.90;999.90;;;18.40;99.90;;;;;;4970632;28;21161;-67
2021/06/23 12:15:35;;;;;;;1999.90;999.90;;;18.20;99.90;;;;;;4970744;28;20545;-66
2021/06/23 12:18:04;;;;;;;1999.90;999.90;;;18.00;99.90;;;;;;4969497;28;20412;-66
2021/06/23 12:20:31;;;;;;;1999.90;999.90;;;17.90;99.90;;;;;;4970089;28;20421;-67
2021/06/23 12:23:01;;;;;;;1999.90;999.90;;;18.00;99.90;;;;;;4970375;28;20422;-66